createdAt,value
2019-05-19T00:08:14.981Z,10.59
2019-05-19T00:19:25.771Z,10.60
2019-05-19T00:30:22.249Z,10.56
2019-05-19T00:41:20.581Z,10.75
2019-05-19T00:52:22.492Z,10.59
2019-05-19T01:03:22.330Z,10.47
2019-05-19T01:14:24.436Z,10.31
2019-05-19T01:25:22.554Z,10.07
2019-05-19T01:36:21.460Z,10.07
2019-05-19T01:47:18.843Z,10.15
2019-05-19T01:58:18.331Z,10.19
2019-05-19T02:09:19.244Z,10.31
2019-05-19T02:20:32.652Z,10.28
2019-05-19T02:31:29.351Z,10.37
2019-05-19T02:42:27.401Z,10.31
2019-05-19T02:53:28.031Z,10.39
2019-05-19T03:04:29.672Z,10.55
2019-05-19T03:15:30.180Z,10.60
2019-05-19T03:26:26.732Z,10.59
2019-05-19T03:37:27.294Z,10.66
2019-05-19T03:48:29.007Z,10.69
2019-05-19T03:59:34.011Z,10.93
2019-05-19T04:10:38.690Z,11.23
2019-05-19T04:21:48.138Z,11.74
2019-05-19T04:32:43.774Z,12.21
2019-05-19T04:43:41.380Z,12.31
2019-05-19T04:54:35.214Z,12.44
2019-05-19T05:05:33.575Z,12.60
2019-05-19T05:16:31.592Z,12.46
2019-05-19T05:27:33.687Z,12.82
2019-05-19T05:38:38.335Z,13.09
2019-05-19T05:49:40.855Z,13.36
2019-05-19T06:00:38.733Z,13.68
2019-05-19T06:11:37.450Z,13.94
2019-05-19T06:22:54.526Z,14.31
2019-05-19T06:33:43.713Z,14.29
2019-05-19T06:44:39.861Z,14.78
2019-05-19T06:55:38.454Z,14.79
2019-05-19T07:06:35.835Z,14.95
2019-05-19T07:17:36.121Z,15.10
2019-05-19T07:28:38.547Z,15.16
2019-05-19T07:39:39.906Z,15.27
2019-05-19T07:50:38.028Z,15.46
2019-05-19T08:01:39.100Z,16.07
2019-05-19T08:12:36.852Z,16.29
2019-05-19T08:23:32.407Z,16.65
2019-05-19T08:34:32.064Z,16.84
2019-05-19T08:45:32.594Z,17.39
2019-05-19T08:56:30.600Z,17.82
2019-05-19T09:07:31.921Z,18.14
2019-05-19T09:18:31.097Z,19.09
2019-05-19T09:29:31.041Z,18.32
2019-05-19T09:40:32.591Z,18.99
2019-05-19T09:51:36.276Z,19.13
2019-05-19T10:02:37.167Z,19.68
2019-05-19T10:13:39.312Z,20.57
2019-05-19T10:24:37.068Z,19.91
2019-05-19T10:35:37.074Z,20.40
2019-05-19T10:46:32.986Z,20.47
2019-05-19T10:57:33.951Z,20.79
2019-05-19T11:08:34.058Z,21.19
2019-05-19T11:19:32.442Z,22.23
2019-05-19T11:30:34.555Z,20.08
2019-05-19T11:41:30.124Z,19.90
2019-05-19T11:52:26.494Z,20.09
2019-05-19T12:03:27.257Z,20.96
2019-05-19T12:14:30.610Z,21.91
2019-05-19T12:25:31.989Z,22.67
2019-05-19T12:36:33.477Z,22.59
2019-05-19T12:47:35.726Z,21.51
2019-05-19T12:58:37.927Z,20.62
2019-05-19T13:09:37.035Z,20.56
2019-05-19T13:20:34.537Z,20.84
2019-05-19T13:31:35.023Z,20.54
2019-05-19T13:42:31.538Z,19.32
2019-05-19T13:53:25.342Z,16.45
2019-05-19T14:04:09.309Z,15.46
2019-05-19T14:15:08.834Z,15.82
2019-05-19T14:26:10.473Z,15.75
2019-05-19T14:37:13.885Z,15.79
2019-05-19T14:48:10.851Z,15.75
2019-05-19T14:59:13.044Z,15.83
2019-05-19T15:10:12.340Z,16.04
2019-05-19T15:21:13.976Z,16.23
2019-05-19T15:32:13.943Z,16.23
2019-05-19T15:43:10.078Z,16.35
2019-05-19T15:54:08.900Z,16.34
2019-05-19T16:04:57.249Z,16.48
2019-05-19T16:15:58.378Z,16.82
2019-05-19T16:27:02.239Z,16.59
2019-05-19T16:38:01.778Z,16.52
2019-05-19T16:49:00.902Z,16.62
2019-05-19T17:00:02.410Z,16.33
2019-05-19T17:11:17.390Z,16.35
2019-05-19T17:22:06.872Z,16.27
2019-05-19T17:33:09.564Z,16.06
2019-05-19T17:44:10.327Z,15.67
2019-05-19T17:55:06.310Z,15.68
2019-05-19T18:06:07.701Z,15.60
2019-05-19T18:17:04.899Z,15.31
2019-05-19T18:28:06.045Z,15.02
2019-05-19T18:39:08.035Z,14.71
2019-05-19T18:50:07.799Z,14.71
2019-05-19T19:01:10.041Z,14.65
2019-05-19T19:12:09.080Z,14.60
2019-05-19T19:23:07.118Z,14.67
2019-05-19T19:34:03.239Z,14.47
2019-05-19T19:44:59.326Z,14.16
2019-05-19T19:55:54.638Z,13.94
2019-05-19T20:06:53.114Z,14.02
2019-05-19T20:17:52.238Z,14.01
2019-05-19T20:28:54.777Z,13.96
2019-05-19T20:39:56.955Z,13.89
2019-05-19T20:50:46.472Z,13.66
2019-05-19T21:01:49.616Z,13.65
2019-05-19T21:12:50.636Z,13.66
2019-05-19T21:23:47.137Z,13.62
2019-05-19T21:34:50.876Z,13.68
2019-05-19T21:45:47.006Z,13.66
2019-05-19T21:56:47.870Z,13.62
2019-05-19T22:07:52.544Z,13.63
2019-05-19T22:18:55.118Z,13.58
2019-05-19T22:29:59.762Z,13.63
2019-05-19T22:40:59.720Z,13.52
2019-05-19T22:51:58.736Z,13.59
2019-05-19T23:03:00.058Z,13.44
2019-05-19T23:14:02.318Z,13.41
2019-05-19T23:24:59.322Z,13.21
2019-05-19T23:36:03.462Z,13.32
2019-05-19T23:47:02.058Z,13.19
2019-05-19T23:58:06.114Z,13.10
